createdAt,value
2018-08-09T00:01:50.373Z,99.90
2018-08-09T00:04:18.199Z,99.90
2018-08-09T00:06:45.671Z,99.90
2018-08-09T00:09:13.105Z,99.90
2018-08-09T00:11:40.883Z,99.90
2018-08-09T00:14:08.759Z,99.90
2018-08-09T00:16:36.107Z,99.90
2018-08-09T00:19:03.517Z,99.90
2018-08-09T00:21:31.157Z,99.90
2018-08-09T00:23:58.542Z,99.90
2018-08-09T00:26:25.976Z,99.90
2018-08-09T00:28:53.392Z,99.90
2018-08-09T00:31:20.816Z,99.90
2018-08-09T00:33:48.208Z,99.90
2018-08-09T00:36:15.596Z,99.90
2018-08-09T00:38:43.072Z,99.90
2018-08-09T00:41:10.409Z,99.90
2018-08-09T00:43:37.794Z,99.90
2018-08-09T00:46:05.528Z,99.90
2018-08-09T00:48:32.980Z,99.90
2018-08-09T00:51:00.315Z,99.90
2018-08-09T00:53:27.828Z,99.90
2018-08-09T00:55:55.221Z,99.90
2018-08-09T00:58:22.751Z,99.90
2018-08-09T01:00:50.121Z,99.90
2018-08-09T01:03:17.513Z,99.90
2018-08-09T01:05:44.838Z,99.90
2018-08-09T01:08:12.212Z,99.90
2018-08-09T01:10:39.677Z,99.90
2018-08-09T01:13:07.045Z,99.90
2018-08-09T01:15:34.480Z,99.90
2018-08-09T01:18:01.925Z,99.90
2018-08-09T01:20:29.372Z,99.90
2018-08-09T01:22:56.776Z,99.90
2018-08-09T01:25:24.246Z,99.90
2018-08-09T01:27:51.638Z,99.90
2018-08-09T01:30:19.075Z,99.90
2018-08-09T01:32:46.409Z,99.90
2018-08-09T01:35:13.827Z,99.90
2018-08-09T01:37:41.171Z,99.90
2018-08-09T01:40:08.661Z,99.90
2018-08-09T01:43:48.253Z,99.90
2018-08-09T01:46:15.534Z,99.90
2018-08-09T01:48:43.010Z,99.90
2018-08-09T01:51:10.310Z,99.90
2018-08-09T01:53:37.661Z,99.90
2018-08-09T01:56:05.109Z,99.90
2018-08-09T01:58:32.521Z,99.90
2018-08-09T02:00:59.877Z,99.90
2018-08-09T02:03:27.241Z,99.90
2018-08-09T02:05:54.629Z,99.90
2018-08-09T02:08:22.032Z,99.90
2018-08-09T02:10:49.409Z,99.90
2018-08-09T02:13:16.797Z,99.90
2018-08-09T02:15:44.245Z,99.90
2018-08-09T02:18:11.645Z,99.90
2018-08-09T02:20:39.013Z,99.90
2018-08-09T02:23:06.379Z,99.90
2018-08-09T02:25:33.715Z,99.90
2018-08-09T02:28:01.047Z,99.90
2018-08-09T02:30:28.445Z,99.90
2018-08-09T02:32:55.743Z,99.90
2018-08-09T02:35:23.135Z,99.90
2018-08-09T02:37:50.536Z,99.90
2018-08-09T02:40:17.978Z,99.90
2018-08-09T02:42:45.270Z,99.90
2018-08-09T02:45:12.693Z,99.90
2018-08-09T02:47:40.138Z,99.90
2018-08-09T02:50:07.522Z,99.90
2018-08-09T02:52:34.899Z,99.90
2018-08-09T02:55:02.304Z,99.90
2018-08-09T02:57:29.634Z,99.90
2018-08-09T02:59:56.997Z,99.90
2018-08-09T03:02:24.326Z,99.90
2018-08-09T03:04:51.697Z,99.90
2018-08-09T03:07:19.150Z,99.90
2018-08-09T03:09:46.642Z,99.90
2018-08-09T03:12:14.075Z,99.90
2018-08-09T03:14:41.491Z,99.90
2018-08-09T03:17:09.158Z,99.90
2018-08-09T03:19:36.528Z,99.90
2018-08-09T03:22:04.269Z,99.90
2018-08-09T03:24:31.701Z,99.90
2018-08-09T03:26:59.010Z,99.90
2018-08-09T03:29:26.355Z,99.90
2018-08-09T03:31:53.754Z,99.90
2018-08-09T03:34:21.118Z,99.90
2018-08-09T03:36:48.618Z,99.90
2018-08-09T03:39:16.060Z,99.90
2018-08-09T03:41:43.432Z,99.90
2018-08-09T03:44:10.882Z,99.90
2018-08-09T03:46:38.229Z,99.90
2018-08-09T03:49:05.745Z,99.90
2018-08-09T03:51:33.108Z,99.90
2018-08-09T03:54:00.684Z,99.90
2018-08-09T03:56:28.263Z,99.90
2018-08-09T03:58:55.598Z,99.90
2018-08-09T04:01:22.978Z,99.90
2018-08-09T04:03:50.426Z,99.90
2018-08-09T04:06:17.768Z,99.90
2018-08-09T04:08:45.146Z,99.90
2018-08-09T04:11:12.577Z,99.90
2018-08-09T04:13:39.968Z,99.90
2018-08-09T04:16:07.415Z,99.90
2018-08-09T04:18:34.921Z,99.90
2018-08-09T04:21:02.314Z,99.90
2018-08-09T04:23:29.723Z,99.90
2018-08-09T04:25:57.201Z,99.90
2018-08-09T04:28:24.605Z,99.90
2018-08-09T04:30:51.952Z,99.90
2018-08-09T04:33:19.345Z,99.90
2018-08-09T04:35:46.801Z,99.90
2018-08-09T04:38:14.330Z,99.90
2018-08-09T04:41:02.004Z,99.90
2018-08-09T04:43:29.471Z,99.90
2018-08-09T04:46:07.072Z,99.90
2018-08-09T04:48:34.501Z,99.90
2018-08-09T04:51:01.927Z,99.90
2018-08-09T04:53:29.313Z,99.90
2018-08-09T04:55:56.695Z,99.90
2018-08-09T04:58:56.420Z,99.90
2018-08-09T05:01:24.374Z,99.90
2018-08-09T05:03:51.744Z,99.90
2018-08-09T05:06:19.262Z,99.90
2018-08-09T05:08:46.593Z,99.90
2018-08-09T05:11:13.978Z,99.90
2018-08-09T05:13:41.369Z,99.90
2018-08-09T05:16:08.712Z,99.90
2018-08-09T05:18:36.057Z,99.90
2018-08-09T05:21:03.438Z,99.90
2018-08-09T05:23:30.897Z,99.90
2018-08-09T05:25:58.253Z,99.90
2018-08-09T05:28:31.634Z,99.90
2018-08-09T05:30:59.098Z,99.90
2018-08-09T05:33:26.493Z,99.90
2018-08-09T05:35:54.341Z,99.90
2018-08-09T05:38:21.813Z,99.90
2018-08-09T05:40:49.247Z,99.90
2018-08-09T05:43:16.758Z,99.90
2018-08-09T05:45:44.269Z,99.90
2018-08-09T05:48:11.688Z,99.90
2018-08-09T05:50:44.893Z,99.90
2018-08-09T05:53:12.515Z,99.90
2018-08-09T05:55:40.288Z,99.90
2018-08-09T05:58:08.891Z,99.90
2018-08-09T06:00:44.940Z,99.90
2018-08-09T06:03:12.394Z,99.90
2018-08-09T06:06:01.294Z,99.90
2018-08-09T06:08:28.728Z,99.90
2018-08-09T06:10:56.221Z,99.90
2018-08-09T06:13:38.057Z,99.90
2018-08-09T06:16:05.737Z,99.90
2018-08-09T06:18:33.022Z,99.90
2018-08-09T06:21:00.516Z,99.90
2018-08-09T06:23:28.006Z,99.90
2018-08-09T06:25:55.307Z,99.90
2018-08-09T06:28:22.674Z,99.90
2018-08-09T06:30:50.149Z,99.90
2018-08-09T06:33:17.609Z,99.90
2018-08-09T06:35:45.629Z,99.90
2018-08-09T06:38:13.133Z,99.90
2018-08-09T06:40:40.630Z,99.90
2018-08-09T06:43:08.129Z,99.90
2018-08-09T06:45:35.560Z,99.90
2018-08-09T06:48:02.966Z,99.90
2018-08-09T06:50:30.321Z,99.90
2018-08-09T06:52:57.680Z,99.90
2018-08-09T06:55:25.174Z,99.90
2018-08-09T06:57:52.682Z,99.90
2018-08-09T07:00:20.193Z,99.90
2018-08-09T07:02:47.553Z,99.90
2018-08-09T07:05:14.949Z,99.90
2018-08-09T07:07:42.293Z,99.90
2018-08-09T07:10:10.233Z,99.90
2018-08-09T07:12:37.725Z,99.90
2018-08-09T07:15:08.057Z,99.90
2018-08-09T07:17:35.482Z,99.90
2018-08-09T07:20:03.108Z,99.90
2018-08-09T07:22:30.399Z,99.90
2018-08-09T07:24:57.733Z,99.90
2018-08-09T07:27:25.087Z,99.90
2018-08-09T07:29:52.509Z,99.90
2018-08-09T07:32:19.883Z,99.90
2018-08-09T07:34:47.344Z,99.90
2018-08-09T07:37:14.710Z,99.90
2018-08-09T07:39:42.186Z,99.90
2018-08-09T07:42:09.646Z,99.90
2018-08-09T07:44:36.967Z,99.90
2018-08-09T07:47:04.397Z,99.90
2018-08-09T07:49:31.836Z,99.90
2018-08-09T07:51:59.344Z,99.90
2018-08-09T07:54:26.703Z,99.90
2018-08-09T07:56:54.088Z,99.90
2018-08-09T07:59:21.441Z,99.90
2018-08-09T08:01:49.031Z,99.90
2018-08-09T08:04:16.409Z,99.90
2018-08-09T08:06:43.879Z,99.90
2018-08-09T08:09:12.004Z,99.90
2018-08-09T08:11:39.431Z,99.90
2018-08-09T08:14:07.297Z,99.90
2018-08-09T08:16:34.652Z,99.90
2018-08-09T08:19:02.000Z,99.90
2018-08-09T08:21:29.351Z,99.90
2018-08-09T08:23:56.745Z,99.90
2018-08-09T08:26:24.054Z,99.90
2018-08-09T08:28:52.441Z,99.90
2018-08-09T08:31:19.834Z,99.90
2018-08-09T08:33:47.134Z,99.90
2018-08-09T08:36:14.488Z,99.90
2018-08-09T08:38:41.806Z,99.90
2018-08-09T08:41:09.193Z,99.90
2018-08-09T08:43:36.616Z,99.90
2018-08-09T08:46:04.444Z,99.90
2018-08-09T08:48:31.778Z,99.90
2018-08-09T08:50:59.980Z,99.90
2018-08-09T08:53:27.481Z,99.90
2018-08-09T08:55:54.956Z,99.90
2018-08-09T08:58:22.389Z,99.90
2018-08-09T09:00:49.922Z,99.90
2018-08-09T09:03:17.319Z,99.90
2018-08-09T09:05:44.742Z,99.90
2018-08-09T09:08:12.166Z,99.50
2018-08-09T09:10:39.564Z,99.30
2018-08-09T09:13:07.122Z,99.20
2018-08-09T09:15:34.580Z,99.10
2018-08-09T09:18:01.994Z,98.30
2018-08-09T09:20:29.394Z,98.40
2018-08-09T09:22:56.901Z,98.10
2018-08-09T09:25:24.362Z,98.00
2018-08-09T09:27:51.772Z,97.50
2018-08-09T09:30:19.224Z,97.00
2018-08-09T09:32:46.976Z,96.90
2018-08-09T09:35:14.458Z,96.40
2018-08-09T09:37:42.169Z,96.60
2018-08-09T09:40:09.912Z,95.50
2018-08-09T09:42:37.912Z,95.50
2018-08-09T09:45:05.989Z,95.70
2018-08-09T09:47:33.359Z,96.00
2018-08-09T09:50:00.863Z,95.00
2018-08-09T09:52:28.249Z,94.90
2018-08-09T09:54:55.678Z,95.10
2018-08-09T09:57:23.074Z,94.90
2018-08-09T09:59:50.423Z,94.40
2018-08-09T10:02:17.765Z,93.70
2018-08-09T10:04:45.071Z,93.70
2018-08-09T10:07:12.596Z,93.60
2018-08-09T10:09:39.925Z,93.60
2018-08-09T10:12:07.385Z,93.60
2018-08-09T10:14:34.861Z,93.10
2018-08-09T10:17:02.334Z,93.00
2018-08-09T10:19:29.723Z,93.40
2018-08-09T10:21:57.052Z,93.00
2018-08-09T10:24:24.421Z,92.80
2018-08-09T10:26:51.843Z,92.00
2018-08-09T10:29:19.297Z,92.00
2018-08-09T10:31:46.575Z,92.40
2018-08-09T10:34:13.975Z,92.00
2018-08-09T10:36:41.467Z,92.20
2018-08-09T10:39:10.249Z,92.30
2018-08-09T10:41:37.562Z,91.80
2018-08-09T10:44:04.907Z,92.20
2018-08-09T10:46:32.312Z,91.50
2018-08-09T10:48:59.682Z,92.40
2018-08-09T10:51:27.083Z,91.30
2018-08-09T10:53:54.494Z,91.70
2018-08-09T10:56:21.892Z,91.10
2018-08-09T10:58:49.609Z,90.90
2018-08-09T11:01:16.952Z,89.50
2018-08-09T11:03:44.358Z,88.10
2018-08-09T11:06:11.746Z,88.60
2018-08-09T11:08:39.143Z,88.40
2018-08-09T11:11:12.899Z,89.70
2018-08-09T11:13:42.761Z,89.60
2018-08-09T11:16:10.865Z,89.60
2018-08-09T11:18:38.226Z,88.10
2018-08-09T11:21:06.013Z,85.70
2018-08-09T11:23:33.666Z,84.70
2018-08-09T11:26:01.055Z,85.80
2018-08-09T11:28:28.766Z,85.90
2018-08-09T11:30:56.203Z,84.20
2018-08-09T11:33:24.053Z,84.80
2018-08-09T11:35:52.615Z,85.90
2018-08-09T11:38:19.976Z,82.80
2018-08-09T11:40:47.444Z,83.30
2018-08-09T11:43:14.941Z,81.60
2018-08-09T11:45:43.229Z,81.80
2018-08-09T11:48:10.585Z,82.30
2018-08-09T11:50:37.919Z,82.80
2018-08-09T11:53:05.393Z,82.60
2018-08-09T11:55:33.099Z,81.90
2018-08-09T11:58:00.841Z,81.60
2018-08-09T12:00:28.237Z,81.90
2018-08-09T12:02:55.542Z,80.70
2018-08-09T12:05:22.930Z,80.00
2018-08-09T12:07:50.404Z,81.80
2018-08-09T12:10:17.838Z,82.20
2018-08-09T12:12:45.243Z,84.40
2018-08-09T12:15:12.798Z,81.20
2018-08-09T12:17:40.131Z,82.10
2018-08-09T12:20:07.637Z,84.10
2018-08-09T12:22:35.118Z,81.80
2018-08-09T12:25:02.666Z,84.90
2018-08-09T12:27:30.118Z,82.40
2018-08-09T12:29:57.628Z,81.90
2018-08-09T12:32:25.070Z,80.70
2018-08-09T12:34:52.563Z,80.20
2018-08-09T12:37:19.942Z,79.70
2018-08-09T12:39:47.297Z,80.80
2018-08-09T12:42:14.679Z,81.40
2018-08-09T12:44:42.197Z,82.40
2018-08-09T12:47:09.634Z,83.60
2018-08-09T12:49:37.036Z,83.20
2018-08-09T12:52:04.705Z,81.00
2018-08-09T12:54:32.099Z,81.20
2018-08-09T12:56:59.586Z,79.90
2018-08-09T12:59:26.995Z,82.00
2018-08-09T13:01:54.369Z,80.70
2018-08-09T13:04:21.774Z,80.10
2018-08-09T13:06:49.127Z,79.50
2018-08-09T13:09:16.613Z,80.90
2018-08-09T13:11:44.068Z,80.30
2018-08-09T13:14:11.425Z,81.10
2018-08-09T13:16:38.917Z,78.70
2018-08-09T13:19:06.659Z,79.10
2018-08-09T13:21:34.061Z,79.70
2018-08-09T13:24:01.496Z,79.50
2018-08-09T13:26:29.000Z,80.10
2018-08-09T13:28:56.549Z,79.20
2018-08-09T13:31:23.915Z,79.20
2018-08-09T13:33:51.436Z,78.40
2018-08-09T13:36:19.007Z,78.50
2018-08-09T13:38:46.526Z,78.30
2018-08-09T13:41:13.948Z,78.20
2018-08-09T13:43:41.320Z,77.60
2018-08-09T13:46:08.737Z,76.80
2018-08-09T13:48:36.150Z,76.50
2018-08-09T13:51:03.567Z,77.20
2018-08-09T13:53:30.976Z,77.40
2018-08-09T13:55:58.404Z,74.70
2018-08-09T13:58:25.973Z,73.20
2018-08-09T14:00:53.470Z,75.50
2018-08-09T14:03:20.934Z,73.90
2018-08-09T14:05:48.343Z,74.00
2018-08-09T14:08:15.889Z,74.40
2018-08-09T14:10:43.353Z,74.30
2018-08-09T14:13:10.949Z,74.90
2018-08-09T14:15:38.349Z,73.80
2018-08-09T14:18:05.856Z,74.40
2018-08-09T14:20:33.413Z,73.70
2018-08-09T14:23:00.947Z,73.70
2018-08-09T14:25:28.559Z,73.30
2018-08-09T14:27:55.975Z,74.50
2018-08-09T14:30:23.378Z,73.00
2018-08-09T14:32:50.811Z,73.60
2018-08-09T14:35:18.315Z,73.20
2018-08-09T14:37:46.502Z,73.10
2018-08-09T14:40:14.561Z,72.90
2018-08-09T14:42:42.074Z,72.50
2018-08-09T14:45:11.757Z,72.40
2018-08-09T14:47:39.381Z,71.40
2018-08-09T14:50:07.067Z,72.50
2018-08-09T14:52:34.842Z,71.00
2018-08-09T14:55:02.414Z,70.90
2018-08-09T14:57:29.822Z,72.20
2018-08-09T14:59:57.756Z,70.60
2018-08-09T15:02:25.590Z,68.80
2018-08-09T15:04:53.029Z,68.60
2018-08-09T15:07:20.520Z,69.00
2018-08-09T15:09:47.894Z,69.70
2018-08-09T15:12:15.498Z,69.50
2018-08-09T15:14:42.938Z,70.10
2018-08-09T15:17:11.194Z,70.00
2018-08-09T15:19:38.714Z,71.00
2018-08-09T15:22:06.532Z,72.10
2018-08-09T15:24:34.044Z,72.40
2018-08-09T15:27:01.394Z,73.40
2018-08-09T15:29:29.076Z,71.50
2018-08-09T15:31:56.595Z,73.50
2018-08-09T15:34:24.034Z,71.90
2018-08-09T15:36:51.601Z,70.10
2018-08-09T15:39:19.069Z,70.60
2018-08-09T15:41:46.529Z,70.00
2018-08-09T15:44:14.050Z,71.70
2018-08-09T15:46:41.440Z,70.80
2018-08-09T15:49:09.092Z,84.10
2018-08-09T15:51:36.476Z,87.30
2018-08-09T15:54:03.956Z,88.60
2018-08-09T15:56:31.373Z,89.30
2018-08-09T15:58:59.177Z,91.20
2018-08-09T16:01:26.653Z,90.50
2018-08-09T16:03:55.106Z,91.00
2018-08-09T16:06:22.563Z,91.20
2018-08-09T16:08:49.914Z,92.20
2018-08-09T16:11:18.753Z,91.90
2018-08-09T16:13:46.702Z,91.80
2018-08-09T16:16:14.136Z,93.50
2018-08-09T16:18:41.589Z,92.10
2018-08-09T16:21:09.091Z,91.60
2018-08-09T16:23:36.572Z,91.60
2018-08-09T16:26:04.021Z,91.50
2018-08-09T16:28:32.031Z,91.30
2018-08-09T16:30:59.433Z,91.60
2018-08-09T16:33:26.779Z,92.30
2018-08-09T16:35:54.230Z,91.60
2018-08-09T16:38:21.683Z,91.80
2018-08-09T16:40:49.220Z,91.90
2018-08-09T16:43:16.667Z,91.90
2018-08-09T16:45:44.171Z,91.70
2018-08-09T16:48:11.609Z,91.70
2018-08-09T16:50:39.029Z,91.90
2018-08-09T16:53:06.453Z,92.00
2018-08-09T16:55:33.861Z,92.40
2018-08-09T16:58:01.415Z,92.10
2018-08-09T17:00:28.961Z,92.20
2018-08-09T17:02:56.459Z,92.30
2018-08-09T17:05:24.972Z,92.30
2018-08-09T17:07:52.925Z,92.30
2018-08-09T17:10:21.626Z,92.20
2018-08-09T17:12:49.166Z,92.30
2018-08-09T17:15:18.173Z,92.30
2018-08-09T17:17:45.594Z,92.20
2018-08-09T17:20:17.001Z,92.10
2018-08-09T17:22:44.413Z,91.90
2018-08-09T17:25:12.710Z,92.30
2018-08-09T17:27:41.243Z,92.70
2018-08-09T17:30:10.000Z,92.50
2018-08-09T17:32:37.506Z,92.50
2018-08-09T17:35:05.459Z,92.60
2018-08-09T17:37:32.933Z,92.90
2018-08-09T17:40:00.457Z,92.80
2018-08-09T17:42:27.974Z,92.80
2018-08-09T17:44:55.493Z,93.40
2018-08-09T17:47:22.969Z,93.50
2018-08-09T17:49:50.735Z,93.40
2018-08-09T17:52:18.322Z,93.30
2018-08-09T17:54:45.827Z,93.50
2018-08-09T17:57:13.381Z,93.40
2018-08-09T17:59:40.893Z,93.90
2018-08-09T18:02:08.629Z,93.90
2018-08-09T18:04:37.111Z,94.30
2018-08-09T18:07:04.705Z,94.40
2018-08-09T18:09:32.183Z,94.70
2018-08-09T18:11:59.781Z,94.90
2018-08-09T18:14:27.192Z,95.00
2018-08-09T18:16:54.649Z,95.40
2018-08-09T18:19:22.065Z,95.70
2018-08-09T18:21:49.475Z,95.70
2018-08-09T18:24:16.901Z,95.80
2018-08-09T18:26:44.411Z,95.90
2018-08-09T18:29:11.905Z,96.10
2018-08-09T18:31:39.386Z,96.20
2018-08-09T18:34:06.741Z,96.50
2018-08-09T18:36:34.216Z,96.60
2018-08-09T18:39:01.731Z,96.70
2018-08-09T18:41:29.150Z,96.60
2018-08-09T18:43:56.510Z,96.30
2018-08-09T18:46:24.070Z,97.00
2018-08-09T18:48:51.855Z,96.80
2018-08-09T18:51:19.405Z,96.80
2018-08-09T18:53:46.859Z,96.90
2018-08-09T18:56:14.362Z,96.90
2018-08-09T18:58:41.820Z,96.80
2018-08-09T19:01:09.358Z,96.80
2018-08-09T19:03:36.789Z,96.90
2018-08-09T19:06:04.512Z,97.10
2018-08-09T19:10:06.768Z,97.20
2018-08-09T19:15:37.215Z,97.50
2018-08-09T19:18:05.170Z,97.50
2018-08-09T19:20:34.166Z,97.60
2018-08-09T19:23:01.881Z,97.60
2018-08-09T19:25:29.319Z,97.60
2018-08-09T19:27:56.998Z,97.60
2018-08-09T19:30:25.991Z,97.50
2018-08-09T19:32:53.475Z,97.60
2018-08-09T19:35:21.558Z,97.60
2018-08-09T19:37:49.114Z,97.80
2018-08-09T19:40:19.796Z,97.70
2018-08-09T19:42:47.289Z,97.70
2018-08-09T19:45:15.978Z,97.90
2018-08-09T19:47:43.478Z,97.70
2018-08-09T19:50:12.917Z,97.80
2018-08-09T19:52:40.369Z,97.80
2018-08-09T19:55:10.351Z,98.10
2018-08-09T19:57:38.375Z,97.90
2018-08-09T20:00:08.869Z,98.20
2018-08-09T20:02:36.393Z,98.20
2018-08-09T20:05:04.977Z,98.40
2018-08-09T20:07:32.878Z,98.30
2018-08-09T20:10:00.367Z,98.20
2018-08-09T20:12:27.849Z,98.10
2018-08-09T20:14:55.253Z,98.20
2018-08-09T20:17:22.659Z,98.40
2018-08-09T20:19:50.031Z,98.40
2018-08-09T20:22:17.831Z,98.90
2018-08-09T20:24:45.785Z,98.90
2018-08-09T20:27:13.579Z,98.90
2018-08-09T20:29:41.130Z,99.00
2018-08-09T20:32:08.670Z,99.00
2018-08-09T20:34:36.104Z,99.20
2018-08-09T20:37:04.143Z,99.60
2018-08-09T20:39:31.672Z,99.00
2018-08-09T20:41:59.063Z,99.30
2018-08-09T20:44:26.484Z,99.40
2018-08-09T20:46:53.882Z,99.50
2018-08-09T20:49:21.393Z,99.80
2018-08-09T20:51:48.846Z,99.90
2018-08-09T20:54:16.263Z,99.90
2018-08-09T20:56:43.673Z,99.90
2018-08-09T20:59:11.051Z,99.90
2018-08-09T21:01:38.528Z,99.90
2018-08-09T21:04:06.804Z,99.90
2018-08-09T21:06:34.310Z,99.90
2018-08-09T21:09:01.951Z,99.90
2018-08-09T21:11:29.545Z,99.90
2018-08-09T21:13:57.023Z,99.90
2018-08-09T21:16:24.621Z,99.90
2018-08-09T21:18:52.262Z,99.90
2018-08-09T21:21:19.724Z,99.90
2018-08-09T21:23:47.235Z,99.90
2018-08-09T21:26:14.700Z,99.90
2018-08-09T21:28:42.151Z,99.90
2018-08-09T21:31:09.626Z,99.90
2018-08-09T21:33:37.106Z,99.90
2018-08-09T21:36:04.532Z,99.90
2018-08-09T21:38:32.080Z,99.90
2018-08-09T21:40:59.446Z,99.90
2018-08-09T21:43:26.900Z,99.90
2018-08-09T21:45:54.354Z,99.90
2018-08-09T21:48:21.944Z,99.90
2018-08-09T21:50:49.445Z,99.90
2018-08-09T21:53:16.851Z,99.90
2018-08-09T21:55:44.291Z,99.90
2018-08-09T21:58:11.656Z,99.90
2018-08-09T22:00:52.000Z,99.90
2018-08-09T22:03:21.431Z,99.90
2018-08-09T22:05:54.799Z,99.90
2018-08-09T22:08:28.001Z,99.90
2018-08-09T22:11:01.568Z,99.90
2018-08-09T22:13:34.898Z,99.90
2018-08-09T22:16:08.597Z,99.90
2018-08-09T22:18:41.782Z,99.90
2018-08-09T22:21:14.753Z,99.90
2018-08-09T22:23:42.291Z,99.90
2018-08-09T22:26:10.218Z,99.90
2018-08-09T22:28:37.657Z,99.90
2018-08-09T22:31:05.161Z,99.90
2018-08-09T22:33:33.017Z,99.90
2018-08-09T22:36:00.411Z,99.90
2018-08-09T22:38:28.345Z,99.90
2018-08-09T22:40:55.787Z,99.90
2018-08-09T22:43:23.217Z,99.90
2018-08-09T22:45:50.670Z,99.90
2018-08-09T22:48:18.117Z,99.90
2018-08-09T22:50:45.554Z,99.90
2018-08-09T22:53:13.541Z,99.90
2018-08-09T22:55:41.073Z,99.90
2018-08-09T22:58:08.492Z,99.90
2018-08-09T23:00:35.991Z,99.90
2018-08-09T23:03:04.745Z,99.90
2018-08-09T23:05:32.188Z,99.90
2018-08-09T23:07:59.534Z,99.90
2018-08-09T23:10:26.972Z,99.90
2018-08-09T23:12:54.443Z,99.90
2018-08-09T23:15:21.837Z,99.90
2018-08-09T23:17:49.317Z,99.90
2018-08-09T23:20:16.793Z,99.90
2018-08-09T23:22:44.142Z,99.90
2018-08-09T23:25:13.011Z,99.90
2018-08-09T23:27:41.016Z,99.90
2018-08-09T23:30:09.535Z,99.90
2018-08-09T23:32:37.218Z,99.90
2018-08-09T23:35:06.188Z,99.90
2018-08-09T23:37:33.765Z,99.90
2018-08-09T23:40:01.211Z,99.90
2018-08-09T23:42:28.555Z,99.90
2018-08-09T23:44:56.052Z,99.90
2018-08-09T23:47:23.493Z,99.90
2018-08-09T23:49:50.908Z,99.90
2018-08-09T23:52:18.319Z,99.90
2018-08-09T23:54:45.788Z,99.90
2018-08-09T23:57:13.252Z,99.90
2018-08-09T23:59:40.709Z,99.90
